sensor_id;sensor_type;location;lat;lon;timestamp;temperature;humidity
9450;DHT22;4763;48.370;10.874;2023-05-15T00:01:57;10.70;99.90
9450;DHT22;4763;48.370;10.874;2023-05-15T00:04:24;10.60;99.90
9450;DHT22;4763;48.370;10.874;2023-05-15T00:06:51;10.70;99.90
9450;DHT22;4763;48.370;10.874;2023-05-15T00:09:18;10.60;99.90
9450;DHT22;4763;48.370;10.874;2023-05-15T00:11:45;10.60;99.90
9450;DHT22;4763;48.370;10.874;2023-05-15T00:14:12;10.60;99.90
9450;DHT22;4763;48.370;10.874;2023-05-15T00:16:40;10.60;99.90
9450;DHT22;4763;48.370;10.874;2023-05-15T00:19:07;10.60;99.90
9450;DHT22;4763;48.370;10.874;2023-05-15T00:21:34;10.60;99.90
9450;DHT22;4763;48.370;10.874;2023-05-15T00:24:01;10.60;99.90
9450;DHT22;4763;48.370;10.874;2023-05-15T00:26:27;10.60;99.90
9450;DHT22;4763;48.370;10.874;2023-05-15T00:28:54;10.60;99.90
9450;DHT22;4763;48.370;10.874;2023-05-15T00:31:21;10.60;99.90
9450;DHT22;4763;48.370;10.874;2023-05-15T00:33:49;10.60;99.90
9450;DHT22;4763;48.370;10.874;2023-05-15T00:36:16;10.60;99.90
9450;DHT22;4763;48.370;10.874;2023-05-15T00:38:46;10.60;99.90
9450;DHT22;4763;48.370;10.874;2023-05-15T00:41:13;10.60;99.90
9450;DHT22;4763;48.370;10.874;2023-05-15T00:43:41;10.50;99.90
9450;DHT22;4763;48.370;10.874;2023-05-15T00:46:08;10.50;99.90
9450;DHT22;4763;48.370;10.874;2023-05-15T00:48:37;10.60;99.90
9450;DHT22;4763;48.370;10.874;2023-05-15T00:51:05;10.60;99.90
9450;DHT22;4763;48.370;10.874;2023-05-15T00:53:32;10.60;99.90
9450;DHT22;4763;48.370;10.874;2023-05-15T00:56:06;10.60;99.90
9450;DHT22;4763;48.370;10.874;2023-05-15T00:58:36;10.60;99.90
9450;DHT22;4763;48.370;10.874;2023-05-15T01:01:03;10.60;99.90
9450;DHT22;4763;48.370;10.874;2023-05-15T01:03:30;10.60;99.90
9450;DHT22;4763;48.370;10.874;2023-05-15T01:05:57;10.50;99.90
9450;DHT22;4763;48.370;10.874;2023-05-15T01:08:31;10.60;99.90
9450;DHT22;4763;48.370;10.874;2023-05-15T01:11:02;10.60;99.90
9450;DHT22;4763;48.370;10.874;2023-05-15T01:13:29;10.60;99.90
9450;DHT22;4763;48.370;10.874;2023-05-15T01:15:57;10.60;99.90
9450;DHT22;4763;48.370;10.874;2023-05-15T01:18:24;10.50;99.90
9450;DHT22;4763;48.370;10.874;2023-05-15T01:21:10;10.60;99.90
9450;DHT22;4763;48.370;10.874;2023-05-15T01:23:59;10.60;99.90
9450;DHT22;4763;48.370;10.874;2023-05-15T01:26:47;10.60;99.90
9450;DHT22;4763;48.370;10.874;2023-05-15T01:29:22;10.60;99.90
9450;DHT22;4763;48.370;10.874;2023-05-15T01:31:54;10.60;99.90
9450;DHT22;4763;48.370;10.874;2023-05-15T01:34:26;10.50;99.90
9450;DHT22;4763;48.370;10.874;2023-05-15T01:36:57;10.60;99.90
9450;DHT22;4763;48.370;10.874;2023-05-15T01:39:27;10.50;99.90
9450;DHT22;4763;48.370;10.874;2023-05-15T01:42:01;10.60;99.90
9450;DHT22;4763;48.370;10.874;2023-05-15T01:44:32;10.60;99.90
9450;DHT22;4763;48.370;10.874;2023-05-15T01:47:07;10.50;99.90
9450;DHT22;4763;48.370;10.874;2023-05-15T01:49:35;10.50;99.90
9450;DHT22;4763;48.370;10.874;2023-05-15T01:52:09;10.50;99.90
9450;DHT22;4763;48.370;10.874;2023-05-15T01:54:38;10.50;99.90
9450;DHT22;4763;48.370;10.874;2023-05-15T01:57:06;10.50;99.90
9450;DHT22;4763;48.370;10.874;2023-05-15T01:59:36;10.50;99.90
9450;DHT22;4763;48.370;10.874;2023-05-15T02:02:05;10.50;99.90
9450;DHT22;4763;48.370;10.874;2023-05-15T02:04:33;10.40;99.90
9450;DHT22;4763;48.370;10.874;2023-05-15T02:07:00;10.50;99.90
9450;DHT22;4763;48.370;10.874;2023-05-15T02:09:30;10.50;99.90
9450;DHT22;4763;48.370;10.874;2023-05-15T02:11:59;10.40;99.90
9450;DHT22;4763;48.370;10.874;2023-05-15T02:14:27;10.50;99.90
9450;DHT22;4763;48.370;10.874;2023-05-15T02:16:58;10.40;99.90
9450;DHT22;4763;48.370;10.874;2023-05-15T02:19:25;10.40;99.90
9450;DHT22;4763;48.370;10.874;2023-05-15T02:21:51;10.50;99.90
9450;DHT22;4763;48.370;10.874;2023-05-15T02:24:18;10.40;99.90
9450;DHT22;4763;48.370;10.874;2023-05-15T02:26:52;10.40;99.90
9450;DHT22;4763;48.370;10.874;2023-05-15T02:29:30;10.40;99.90
9450;DHT22;4763;48.370;10.874;2023-05-15T02:32:06;10.40;99.90
9450;DHT22;4763;48.370;10.874;2023-05-15T02:34:40;10.40;99.90
9450;DHT22;4763;48.370;10.874;2023-05-15T02:37:13;10.40;99.90
9450;DHT22;4763;48.370;10.874;2023-05-15T02:39:41;10.40;99.90
9450;DHT22;4763;48.370;10.874;2023-05-15T02:42:11;10.40;99.90
9450;DHT22;4763;48.370;10.874;2023-05-15T02:44:42;10.40;99.90
9450;DHT22;4763;48.370;10.874;2023-05-15T02:47:11;10.40;99.90
9450;DHT22;4763;48.370;10.874;2023-05-15T02:49:38;10.30;99.90
9450;DHT22;4763;48.370;10.874;2023-05-15T02:52:05;10.30;99.90
9450;DHT22;4763;48.370;10.874;2023-05-15T02:54:32;10.30;99.90
9450;DHT22;4763;48.370;10.874;2023-05-15T02:56:58;10.30;99.90
9450;DHT22;4763;48.370;10.874;2023-05-15T02:59:25;10.30;99.90
9450;DHT22;4763;48.370;10.874;2023-05-15T03:01:52;10.20;99.90
9450;DHT22;4763;48.370;10.874;2023-05-15T03:04:20;10.30;99.90
9450;DHT22;4763;48.370;10.874;2023-05-15T03:06:47;10.30;99.90
9450;DHT22;4763;48.370;10.874;2023-05-15T03:09:13;10.20;99.90
9450;DHT22;4763;48.370;10.874;2023-05-15T03:11:40;10.20;99.90
9450;DHT22;4763;48.370;10.874;2023-05-15T03:14:07;10.20;99.90
9450;DHT22;4763;48.370;10.874;2023-05-15T03:16:34;10.20;99.90
9450;DHT22;4763;48.370;10.874;2023-05-15T03:19:03;10.20;99.90
9450;DHT22;4763;48.370;10.874;2023-05-15T03:21:31;10.30;99.90
9450;DHT22;4763;48.370;10.874;2023-05-15T03:23:59;10.30;99.90
9450;DHT22;4763;48.370;10.874;2023-05-15T03:26:26;10.30;99.90
9450;DHT22;4763;48.370;10.874;2023-05-15T03:28:54;10.30;99.90
9450;DHT22;4763;48.370;10.874;2023-05-15T03:31:21;10.30;99.90
9450;DHT22;4763;48.370;10.874;2023-05-15T03:33:50;10.30;99.90
9450;DHT22;4763;48.370;10.874;2023-05-15T03:36:16;10.30;99.90
9450;DHT22;4763;48.370;10.874;2023-05-15T03:38:44;10.30;99.90
9450;DHT22;4763;48.370;10.874;2023-05-15T03:41:11;10.30;99.90
9450;DHT22;4763;48.370;10.874;2023-05-15T03:43:38;10.30;99.90
9450;DHT22;4763;48.370;10.874;2023-05-15T03:46:05;10.30;99.90
9450;DHT22;4763;48.370;10.874;2023-05-15T03:48:31;10.30;99.90
9450;DHT22;4763;48.370;10.874;2023-05-15T03:50:58;10.30;99.90
9450;DHT22;4763;48.370;10.874;2023-05-15T03:53:25;10.30;99.90
9450;DHT22;4763;48.370;10.874;2023-05-15T03:55:53;10.30;99.90
9450;DHT22;4763;48.370;10.874;2023-05-15T03:58:20;10.30;99.90
9450;DHT22;4763;48.370;10.874;2023-05-15T04:00:48;10.30;99.90
9450;DHT22;4763;48.370;10.874;2023-05-15T04:03:16;10.30;99.90
9450;DHT22;4763;48.370;10.874;2023-05-15T04:05:44;10.30;99.90
9450;DHT22;4763;48.370;10.874;2023-05-15T04:08:14;10.30;99.90
9450;DHT22;4763;48.370;10.874;2023-05-15T04:10:44;10.30;99.90
9450;DHT22;4763;48.370;10.874;2023-05-15T04:13:12;10.30;99.90
9450;DHT22;4763;48.370;10.874;2023-05-15T04:15:39;10.30;99.90
9450;DHT22;4763;48.370;10.874;2023-05-15T04:18:06;10.30;99.90
9450;DHT22;4763;48.370;10.874;2023-05-15T04:20:33;10.30;99.90
9450;DHT22;4763;48.370;10.874;2023-05-15T04:23:00;10.40;99.90
9450;DHT22;4763;48.370;10.874;2023-05-15T04:25:32;10.40;99.90
9450;DHT22;4763;48.370;10.874;2023-05-15T04:27:59;10.30;99.90
9450;DHT22;4763;48.370;10.874;2023-05-15T04:30:28;10.40;99.90
9450;DHT22;4763;48.370;10.874;2023-05-15T04:32:55;10.40;99.90
9450;DHT22;4763;48.370;10.874;2023-05-15T04:35:22;10.40;99.90
9450;DHT22;4763;48.370;10.874;2023-05-15T04:37:48;10.40;99.90
9450;DHT22;4763;48.370;10.874;2023-05-15T04:40:15;10.50;99.90
9450;DHT22;4763;48.370;10.874;2023-05-15T04:42:42;10.50;99.90
9450;DHT22;4763;48.370;10.874;2023-05-15T04:45:12;10.50;99.90
9450;DHT22;4763;48.370;10.874;2023-05-15T04:47:40;10.60;99.90
9450;DHT22;4763;48.370;10.874;2023-05-15T04:50:07;10.60;99.90
9450;DHT22;4763;48.370;10.874;2023-05-15T04:52:34;10.60;99.90
9450;DHT22;4763;48.370;10.874;2023-05-15T04:55:01;10.60;99.90
9450;DHT22;4763;48.370;10.874;2023-05-15T04:57:28;10.60;99.90
9450;DHT22;4763;48.370;10.874;2023-05-15T04:59:55;10.70;99.90
9450;DHT22;4763;48.370;10.874;2023-05-15T05:02:22;10.70;99.90
9450;DHT22;4763;48.370;10.874;2023-05-15T05:04:51;10.70;99.90
9450;DHT22;4763;48.370;10.874;2023-05-15T05:07:18;10.80;99.90
9450;DHT22;4763;48.370;10.874;2023-05-15T05:09:45;10.80;99.90
9450;DHT22;4763;48.370;10.874;2023-05-15T05:12:11;10.80;99.90
9450;DHT22;4763;48.370;10.874;2023-05-15T05:14:39;10.80;99.90
9450;DHT22;4763;48.370;10.874;2023-05-15T05:17:06;10.90;99.90
9450;DHT22;4763;48.370;10.874;2023-05-15T05:19:34;10.90;99.90
9450;DHT22;4763;48.370;10.874;2023-05-15T05:22:03;11.00;99.90
9450;DHT22;4763;48.370;10.874;2023-05-15T05:24:30;11.10;99.90
9450;DHT22;4763;48.370;10.874;2023-05-15T05:26:57;11.10;99.90
9450;DHT22;4763;48.370;10.874;2023-05-15T05:29:24;11.10;99.90
9450;DHT22;4763;48.370;10.874;2023-05-15T05:31:51;11.10;99.90
9450;DHT22;4763;48.370;10.874;2023-05-15T05:34:18;11.20;99.90
9450;DHT22;4763;48.370;10.874;2023-05-15T05:36:45;11.20;99.90
9450;DHT22;4763;48.370;10.874;2023-05-15T05:39:13;11.20;99.90
9450;DHT22;4763;48.370;10.874;2023-05-15T05:41:40;11.10;99.90
9450;DHT22;4763;48.370;10.874;2023-05-15T05:44:09;11.10;99.90
9450;DHT22;4763;48.370;10.874;2023-05-15T05:46:36;11.20;99.90
9450;DHT22;4763;48.370;10.874;2023-05-15T05:49:02;11.20;99.90
9450;DHT22;4763;48.370;10.874;2023-05-15T05:51:29;11.30;99.90
9450;DHT22;4763;48.370;10.874;2023-05-15T05:53:56;11.30;99.90
9450;DHT22;4763;48.370;10.874;2023-05-15T05:56:25;11.30;99.90
9450;DHT22;4763;48.370;10.874;2023-05-15T05:58:51;11.40;99.90
9450;DHT22;4763;48.370;10.874;2023-05-15T06:01:18;11.40;99.90
9450;DHT22;4763;48.370;10.874;2023-05-15T06:03:46;11.50;99.90
9450;DHT22;4763;48.370;10.874;2023-05-15T06:06:14;11.40;99.90
9450;DHT22;4763;48.370;10.874;2023-05-15T06:08:41;11.50;99.90
9450;DHT22;4763;48.370;10.874;2023-05-15T06:11:08;11.50;99.90
9450;DHT22;4763;48.370;10.874;2023-05-15T06:13:37;11.60;99.90
9450;DHT22;4763;48.370;10.874;2023-05-15T06:16:04;11.70;99.90
9450;DHT22;4763;48.370;10.874;2023-05-15T06:18:31;11.70;99.90
9450;DHT22;4763;48.370;10.874;2023-05-15T06:21:01;11.80;99.90
9450;DHT22;4763;48.370;10.874;2023-05-15T06:23:27;11.70;99.90
9450;DHT22;4763;48.370;10.874;2023-05-15T06:25:54;11.90;99.90
9450;DHT22;4763;48.370;10.874;2023-05-15T06:28:23;11.90;99.90
9450;DHT22;4763;48.370;10.874;2023-05-15T06:30:52;11.90;99.90
9450;DHT22;4763;48.370;10.874;2023-05-15T06:33:19;12.00;99.90
9450;DHT22;4763;48.370;10.874;2023-05-15T06:35:46;12.10;99.90
9450;DHT22;4763;48.370;10.874;2023-05-15T06:38:13;12.10;99.90
9450;DHT22;4763;48.370;10.874;2023-05-15T06:40:40;12.20;99.90
9450;DHT22;4763;48.370;10.874;2023-05-15T06:43:07;12.30;99.90
9450;DHT22;4763;48.370;10.874;2023-05-15T06:45:33;12.60;99.90
9450;DHT22;4763;48.370;10.874;2023-05-15T06:48:02;12.70;99.90
9450;DHT22;4763;48.370;10.874;2023-05-15T06:50:29;12.80;99.90
9450;DHT22;4763;48.370;10.874;2023-05-15T06:52:56;12.90;99.90
9450;DHT22;4763;48.370;10.874;2023-05-15T06:55:23;13.10;99.90
9450;DHT22;4763;48.370;10.874;2023-05-15T06:57:49;13.10;99.90
9450;DHT22;4763;48.370;10.874;2023-05-15T07:00:17;13.00;99.90
9450;DHT22;4763;48.370;10.874;2023-05-15T07:02:43;13.00;99.90
9450;DHT22;4763;48.370;10.874;2023-05-15T07:05:13;13.20;99.90
9450;DHT22;4763;48.370;10.874;2023-05-15T07:07:40;13.40;99.90
9450;DHT22;4763;48.370;10.874;2023-05-15T07:10:08;13.50;99.90
9450;DHT22;4763;48.370;10.874;2023-05-15T07:12:34;13.40;99.90
9450;DHT22;4763;48.370;10.874;2023-05-15T07:15:01;13.50;99.90
9450;DHT22;4763;48.370;10.874;2023-05-15T07:17:29;13.50;99.90
9450;DHT22;4763;48.370;10.874;2023-05-15T07:19:56;13.50;99.90
9450;DHT22;4763;48.370;10.874;2023-05-15T07:22:26;13.50;99.90
9450;DHT22;4763;48.370;10.874;2023-05-15T07:24:52;13.50;99.90
9450;DHT22;4763;48.370;10.874;2023-05-15T07:27:19;13.50;99.90
9450;DHT22;4763;48.370;10.874;2023-05-15T07:29:46;13.60;99.90
9450;DHT22;4763;48.370;10.874;2023-05-15T07:32:12;13.60;99.90
9450;DHT22;4763;48.370;10.874;2023-05-15T07:34:39;13.70;99.90
9450;DHT22;4763;48.370;10.874;2023-05-15T07:37:07;13.80;99.90
9450;DHT22;4763;48.370;10.874;2023-05-15T07:39:35;14.00;99.90
9450;DHT22;4763;48.370;10.874;2023-05-15T07:42:02;14.30;99.90
9450;DHT22;4763;48.370;10.874;2023-05-15T07:44:29;14.30;99.90
9450;DHT22;4763;48.370;10.874;2023-05-15T07:46:55;14.50;99.90
9450;DHT22;4763;48.370;10.874;2023-05-15T07:49:24;15.00;99.90
9450;DHT22;4763;48.370;10.874;2023-05-15T07:51:50;15.10;99.90
9450;DHT22;4763;48.370;10.874;2023-05-15T07:54:17;15.00;99.90
9450;DHT22;4763;48.370;10.874;2023-05-15T07:56:45;14.60;99.90
9450;DHT22;4763;48.370;10.874;2023-05-15T07:59:12;14.60;99.90
9450;DHT22;4763;48.370;10.874;2023-05-15T08:01:39;14.60;99.90
9450;DHT22;4763;48.370;10.874;2023-05-15T08:04:10;14.60;99.90
9450;DHT22;4763;48.370;10.874;2023-05-15T08:06:37;14.60;99.90
9450;DHT22;4763;48.370;10.874;2023-05-15T08:09:03;14.80;99.90
9450;DHT22;4763;48.370;10.874;2023-05-15T08:11:30;14.60;99.90
9450;DHT22;4763;48.370;10.874;2023-05-15T08:14:01;14.60;99.90
9450;DHT22;4763;48.370;10.874;2023-05-15T08:16:28;14.60;99.90
9450;DHT22;4763;48.370;10.874;2023-05-15T08:18:54;14.60;99.90
9450;DHT22;4763;48.370;10.874;2023-05-15T08:21:25;14.70;99.90
9450;DHT22;4763;48.370;10.874;2023-05-15T08:23:52;15.10;99.90
9450;DHT22;4763;48.370;10.874;2023-05-15T08:26:19;15.60;99.90
9450;DHT22;4763;48.370;10.874;2023-05-15T08:28:45;16.20;99.90
9450;DHT22;4763;48.370;10.874;2023-05-15T08:31:14;16.50;99.90
9450;DHT22;4763;48.370;10.874;2023-05-15T08:33:43;16.50;99.90
9450;DHT22;4763;48.370;10.874;2023-05-15T08:36:10;16.50;99.90
9450;DHT22;4763;48.370;10.874;2023-05-15T08:38:37;16.40;99.90
9450;DHT22;4763;48.370;10.874;2023-05-15T08:41:06;16.50;99.90
9450;DHT22;4763;48.370;10.874;2023-05-15T08:43:36;16.40;99.90
9450;DHT22;4763;48.370;10.874;2023-05-15T08:46:08;16.40;99.90
9450;DHT22;4763;48.370;10.874;2023-05-15T08:48:38;16.50;99.90
9450;DHT22;4763;48.370;10.874;2023-05-15T08:51:08;16.90;99.90
9450;DHT22;4763;48.370;10.874;2023-05-15T08:53:35;16.50;99.90
9450;DHT22;4763;48.370;10.874;2023-05-15T08:56:03;16.30;99.90
9450;DHT22;4763;48.370;10.874;2023-05-15T08:58:30;15.90;99.90
9450;DHT22;4763;48.370;10.874;2023-05-15T09:00:58;15.90;99.90
9450;DHT22;4763;48.370;10.874;2023-05-15T09:03:25;15.80;99.90
9450;DHT22;4763;48.370;10.874;2023-05-15T09:05:53;15.80;99.90
9450;DHT22;4763;48.370;10.874;2023-05-15T09:08:24;15.70;99.90
9450;DHT22;4763;48.370;10.874;2023-05-15T09:10:52;15.70;99.90
9450;DHT22;4763;48.370;10.874;2023-05-15T09:13:18;15.60;99.90
9450;DHT22;4763;48.370;10.874;2023-05-15T09:15:45;15.40;99.90
9450;DHT22;4763;48.370;10.874;2023-05-15T09:18:14;15.00;99.90
9450;DHT22;4763;48.370;10.874;2023-05-15T09:20:41;14.80;99.90
9450;DHT22;4763;48.370;10.874;2023-05-15T09:23:23;14.40;99.90
9450;DHT22;4763;48.370;10.874;2023-05-15T09:25:50;14.30;99.90
9450;DHT22;4763;48.370;10.874;2023-05-15T09:28:28;14.30;99.90
9450;DHT22;4763;48.370;10.874;2023-05-15T09:31:00;14.30;99.90
9450;DHT22;4763;48.370;10.874;2023-05-15T09:33:30;14.40;99.90
9450;DHT22;4763;48.370;10.874;2023-05-15T09:35:57;14.50;99.90
9450;DHT22;4763;48.370;10.874;2023-05-15T09:38:25;14.80;99.90
9450;DHT22;4763;48.370;10.874;2023-05-15T09:41:00;15.20;99.90
9450;DHT22;4763;48.370;10.874;2023-05-15T09:43:28;16.00;99.90
9450;DHT22;4763;48.370;10.874;2023-05-15T09:45:58;16.60;99.90
9450;DHT22;4763;48.370;10.874;2023-05-15T09:48:25;16.50;99.90
9450;DHT22;4763;48.370;10.874;2023-05-15T09:50:53;16.70;99.90
9450;DHT22;4763;48.370;10.874;2023-05-15T09:53:21;16.70;99.90
9450;DHT22;4763;48.370;10.874;2023-05-15T09:55:50;16.70;99.90
9450;DHT22;4763;48.370;10.874;2023-05-15T09:58:18;16.50;99.90
9450;DHT22;4763;48.370;10.874;2023-05-15T10:00:46;16.50;99.90
9450;DHT22;4763;48.370;10.874;2023-05-15T10:03:13;16.50;99.90
9450;DHT22;4763;48.370;10.874;2023-05-15T10:05:40;16.50;99.90
9450;DHT22;4763;48.370;10.874;2023-05-15T10:08:07;16.50;99.90
9450;DHT22;4763;48.370;10.874;2023-05-15T10:10:34;16.50;99.90
9450;DHT22;4763;48.370;10.874;2023-05-15T10:13:02;16.40;99.90
9450;DHT22;4763;48.370;10.874;2023-05-15T10:15:30;16.10;99.90
9450;DHT22;4763;48.370;10.874;2023-05-15T10:17:58;16.20;99.90
9450;DHT22;4763;48.370;10.874;2023-05-15T10:20:25;16.30;99.90
9450;DHT22;4763;48.370;10.874;2023-05-15T10:22:54;16.50;99.90
9450;DHT22;4763;48.370;10.874;2023-05-15T10:25:26;16.60;99.90
9450;DHT22;4763;48.370;10.874;2023-05-15T10:27:57;17.00;99.90
9450;DHT22;4763;48.370;10.874;2023-05-15T10:30:25;17.70;99.90
9450;DHT22;4763;48.370;10.874;2023-05-15T10:32:55;18.40;99.90
9450;DHT22;4763;48.370;10.874;2023-05-15T10:35:22;18.30;99.90
9450;DHT22;4763;48.370;10.874;2023-05-15T10:37:49;17.50;99.90
9450;DHT22;4763;48.370;10.874;2023-05-15T10:40:16;17.30;99.90
9450;DHT22;4763;48.370;10.874;2023-05-15T10:42:44;17.40;99.90
9450;DHT22;4763;48.370;10.874;2023-05-15T10:45:11;17.90;99.90
9450;DHT22;4763;48.370;10.874;2023-05-15T10:47:40;17.70;99.90
9450;DHT22;4763;48.370;10.874;2023-05-15T10:50:10;17.50;99.90
9450;DHT22;4763;48.370;10.874;2023-05-15T10:52:37;17.10;99.90
9450;DHT22;4763;48.370;10.874;2023-05-15T10:55:12;16.80;99.90
9450;DHT22;4763;48.370;10.874;2023-05-15T10:57:39;16.50;99.90
9450;DHT22;4763;48.370;10.874;2023-05-15T11:00:23;16.00;99.90
9450;DHT22;4763;48.370;10.874;2023-05-15T11:02:53;15.90;99.90
9450;DHT22;4763;48.370;10.874;2023-05-15T11:05:21;15.80;99.90
9450;DHT22;4763;48.370;10.874;2023-05-15T11:10:46;15.90;99.90
9450;DHT22;4763;48.370;10.874;2023-05-15T11:13:12;16.00;99.90
9450;DHT22;4763;48.370;10.874;2023-05-15T11:15:43;16.10;99.90
9450;DHT22;4763;48.370;10.874;2023-05-15T11:18:12;16.10;99.90
9450;DHT22;4763;48.370;10.874;2023-05-15T11:20:41;16.90;99.90
9450;DHT22;4763;48.370;10.874;2023-05-15T11:23:08;17.80;99.90
9450;DHT22;4763;48.370;10.874;2023-05-15T11:25:35;18.10;99.90
9450;DHT22;4763;48.370;10.874;2023-05-15T11:28:02;18.10;99.90
9450;DHT22;4763;48.370;10.874;2023-05-15T11:30:34;17.70;99.90
9450;DHT22;4763;48.370;10.874;2023-05-15T11:33:04;17.60;99.90
9450;DHT22;4763;48.370;10.874;2023-05-15T11:35:36;17.70;99.90
9450;DHT22;4763;48.370;10.874;2023-05-15T11:38:10;17.60;99.90
9450;DHT22;4763;48.370;10.874;2023-05-15T11:40:45;17.50;99.90
9450;DHT22;4763;48.370;10.874;2023-05-15T11:43:19;17.70;99.90
9450;DHT22;4763;48.370;10.874;2023-05-15T11:45:49;18.40;99.90
9450;DHT22;4763;48.370;10.874;2023-05-15T11:48:17;18.90;99.90
9450;DHT22;4763;48.370;10.874;2023-05-15T11:50:46;19.40;99.90
9450;DHT22;4763;48.370;10.874;2023-05-15T11:53:12;19.90;99.90
9450;DHT22;4763;48.370;10.874;2023-05-15T11:55:42;19.90;99.90
9450;DHT22;4763;48.370;10.874;2023-05-15T11:58:13;20.10;99.90
9450;DHT22;4763;48.370;10.874;2023-05-15T12:00:40;20.50;99.90
9450;DHT22;4763;48.370;10.874;2023-05-15T12:03:14;21.00;99.90
9450;DHT22;4763;48.370;10.874;2023-05-15T12:05:41;20.90;99.90
9450;DHT22;4763;48.370;10.874;2023-05-15T12:08:11;20.50;99.90
9450;DHT22;4763;48.370;10.874;2023-05-15T12:10:41;20.00;99.90
9450;DHT22;4763;48.370;10.874;2023-05-15T12:13:09;19.80;99.90
9450;DHT22;4763;48.370;10.874;2023-05-15T12:15:37;19.40;99.90
9450;DHT22;4763;48.370;10.874;2023-05-15T12:18:05;18.40;99.90
9450;DHT22;4763;48.370;10.874;2023-05-15T12:20:34;17.40;99.90
9450;DHT22;4763;48.370;10.874;2023-05-15T12:23:02;16.60;99.90
9450;DHT22;4763;48.370;10.874;2023-05-15T12:25:31;15.90;99.90
9450;DHT22;4763;48.370;10.874;2023-05-15T12:27:59;15.20;99.90
9450;DHT22;4763;48.370;10.874;2023-05-15T12:30:26;14.90;99.90
9450;DHT22;4763;48.370;10.874;2023-05-15T12:32:58;14.60;99.90
9450;DHT22;4763;48.370;10.874;2023-05-15T12:35:25;14.50;99.90
9450;DHT22;4763;48.370;10.874;2023-05-15T12:37:52;14.60;99.90
9450;DHT22;4763;48.370;10.874;2023-05-15T12:40:20;14.50;99.90
9450;DHT22;4763;48.370;10.874;2023-05-15T12:42:51;14.70;99.90
9450;DHT22;4763;48.370;10.874;2023-05-15T12:45:19;14.70;99.90
9450;DHT22;4763;48.370;10.874;2023-05-15T12:47:48;14.80;99.90
9450;DHT22;4763;48.370;10.874;2023-05-15T12:50:16;14.90;99.90
9450;DHT22;4763;48.370;10.874;2023-05-15T12:52:49;14.90;99.90
9450;DHT22;4763;48.370;10.874;2023-05-15T12:55:16;14.90;99.90
9450;DHT22;4763;48.370;10.874;2023-05-15T12:57:43;14.90;99.90
9450;DHT22;4763;48.370;10.874;2023-05-15T13:00:12;14.90;99.90
9450;DHT22;4763;48.370;10.874;2023-05-15T13:02:42;14.60;99.90
9450;DHT22;4763;48.370;10.874;2023-05-15T13:05:09;14.50;99.90
9450;DHT22;4763;48.370;10.874;2023-05-15T13:07:37;14.50;99.90
9450;DHT22;4763;48.370;10.874;2023-05-15T13:10:07;14.50;99.90
9450;DHT22;4763;48.370;10.874;2023-05-15T13:12:35;14.40;99.90
9450;DHT22;4763;48.370;10.874;2023-05-15T13:15:02;14.40;99.90
9450;DHT22;4763;48.370;10.874;2023-05-15T13:17:31;14.30;99.90
9450;DHT22;4763;48.370;10.874;2023-05-15T13:19:59;14.20;99.90
9450;DHT22;4763;48.370;10.874;2023-05-15T13:22:26;14.30;99.90
9450;DHT22;4763;48.370;10.874;2023-05-15T13:24:52;14.40;99.90
9450;DHT22;4763;48.370;10.874;2023-05-15T13:27:19;14.50;99.90
9450;DHT22;4763;48.370;10.874;2023-05-15T13:29:46;14.50;99.90
9450;DHT22;4763;48.370;10.874;2023-05-15T13:32:13;14.60;99.90
9450;DHT22;4763;48.370;10.874;2023-05-15T13:34:41;14.60;99.90
9450;DHT22;4763;48.370;10.874;2023-05-15T13:37:08;14.70;99.90
9450;DHT22;4763;48.370;10.874;2023-05-15T13:39:35;14.80;99.90
9450;DHT22;4763;48.370;10.874;2023-05-15T13:42:01;15.00;99.90
9450;DHT22;4763;48.370;10.874;2023-05-15T13:44:28;15.00;99.90
9450;DHT22;4763;48.370;10.874;2023-05-15T13:46:56;15.00;99.90
9450;DHT22;4763;48.370;10.874;2023-05-15T13:49:28;15.10;99.90
9450;DHT22;4763;48.370;10.874;2023-05-15T13:51:56;15.20;99.90
9450;DHT22;4763;48.370;10.874;2023-05-15T13:54:23;15.00;99.90
9450;DHT22;4763;48.370;10.874;2023-05-15T13:56:50;14.80;99.90
9450;DHT22;4763;48.370;10.874;2023-05-15T13:59:17;14.70;99.90
9450;DHT22;4763;48.370;10.874;2023-05-15T14:01:44;14.50;99.90
9450;DHT22;4763;48.370;10.874;2023-05-15T14:04:10;14.50;99.90
9450;DHT22;4763;48.370;10.874;2023-05-15T14:06:37;14.30;99.90
9450;DHT22;4763;48.370;10.874;2023-05-15T14:09:05;14.30;99.90
9450;DHT22;4763;48.370;10.874;2023-05-15T14:11:32;14.30;99.90
9450;DHT22;4763;48.370;10.874;2023-05-15T14:14:00;14.20;99.90
9450;DHT22;4763;48.370;10.874;2023-05-15T14:16:26;14.10;99.90
9450;DHT22;4763;48.370;10.874;2023-05-15T14:18:53;14.10;99.90
9450;DHT22;4763;48.370;10.874;2023-05-15T14:21:20;14.10;99.90
9450;DHT22;4763;48.370;10.874;2023-05-15T14:23:46;14.10;99.90
9450;DHT22;4763;48.370;10.874;2023-05-15T14:26:15;14.10;99.90
9450;DHT22;4763;48.370;10.874;2023-05-15T14:28:41;14.00;99.90
9450;DHT22;4763;48.370;10.874;2023-05-15T14:31:08;13.90;99.90
9450;DHT22;4763;48.370;10.874;2023-05-15T14:33:35;14.00;99.90
9450;DHT22;4763;48.370;10.874;2023-05-15T14:36:02;14.10;99.90
9450;DHT22;4763;48.370;10.874;2023-05-15T14:38:29;14.10;99.90
9450;DHT22;4763;48.370;10.874;2023-05-15T14:40:56;14.10;99.90
9450;DHT22;4763;48.370;10.874;2023-05-15T14:43:24;14.10;99.90
9450;DHT22;4763;48.370;10.874;2023-05-15T14:45:51;14.20;99.90
9450;DHT22;4763;48.370;10.874;2023-05-15T14:48:18;14.20;99.90
9450;DHT22;4763;48.370;10.874;2023-05-15T14:50:45;14.10;99.90
9450;DHT22;4763;48.370;10.874;2023-05-15T14:53:11;14.10;99.90
9450;DHT22;4763;48.370;10.874;2023-05-15T14:55:38;14.10;99.90
9450;DHT22;4763;48.370;10.874;2023-05-15T14:58:05;14.10;99.90
9450;DHT22;4763;48.370;10.874;2023-05-15T15:00:36;14.00;99.90
9450;DHT22;4763;48.370;10.874;2023-05-15T15:03:03;13.90;99.90
9450;DHT22;4763;48.370;10.874;2023-05-15T15:05:30;13.90;99.90
9450;DHT22;4763;48.370;10.874;2023-05-15T15:07:59;13.80;99.90
9450;DHT22;4763;48.370;10.874;2023-05-15T15:10:26;13.80;99.90
9450;DHT22;4763;48.370;10.874;2023-05-15T15:12:53;14.00;99.90
9450;DHT22;4763;48.370;10.874;2023-05-15T15:15:20;14.10;99.90
9450;DHT22;4763;48.370;10.874;2023-05-15T15:17:48;14.20;99.90
9450;DHT22;4763;48.370;10.874;2023-05-15T15:20:15;14.30;99.90
9450;DHT22;4763;48.370;10.874;2023-05-15T15:22:42;14.20;99.90
9450;DHT22;4763;48.370;10.874;2023-05-15T15:25:09;14.40;99.90
9450;DHT22;4763;48.370;10.874;2023-05-15T15:27:36;14.40;99.90
9450;DHT22;4763;48.370;10.874;2023-05-15T15:30:03;14.70;99.90
9450;DHT22;4763;48.370;10.874;2023-05-15T15:32:29;14.90;99.90
9450;DHT22;4763;48.370;10.874;2023-05-15T15:34:57;15.20;99.90
9450;DHT22;4763;48.370;10.874;2023-05-15T15:37:26;15.40;99.90
9450;DHT22;4763;48.370;10.874;2023-05-15T15:39:55;15.40;99.90
9450;DHT22;4763;48.370;10.874;2023-05-15T15:42:21;15.40;99.90
9450;DHT22;4763;48.370;10.874;2023-05-15T15:44:49;15.60;99.90
9450;DHT22;4763;48.370;10.874;2023-05-15T15:47:15;15.70;99.90
9450;DHT22;4763;48.370;10.874;2023-05-15T15:49:42;15.70;99.90
9450;DHT22;4763;48.370;10.874;2023-05-15T15:52:10;15.80;99.90
9450;DHT22;4763;48.370;10.874;2023-05-15T15:54:37;15.90;99.90